Time;durP1;ratioP1;P1;durP2;ratioP2;P2;SDS_P1;SDS_P2;PMS_P1;PMS_P2;Temp;Humidity;BMP_temperature;BMP_pressure;BME280_temperature;BME280_humidity;BME280_pressure;Samples;Min_cycle;Max_cycle;Signal;HPM_P1;HPM_P2
2024/02/28 00:02:11;;;;;;;;;;;11.30;99.90;;;;;;4964567;28;19925;-79
2024/02/28 00:04:36;;;;;;;;;;;11.10;99.90;;;;;;4965204;28;19938;-79
2024/02/28 00:07:02;;;;;;;;;;;11.10;99.90;;;;;;4964819;28;19894;-79
2024/02/28 00:25:26;;;;;;;;;;;11.20;99.90;;;;;;4922212;23;19981;-79
2024/02/28 00:56:21;;;;;;;;;;;10.40;99.90;;;;;;5187977;23;19913;-79
2024/02/28 00:58:47;;;;;;;;;;;10.30;99.90;;;;;;4980514;28;19950;-79
2024/02/28 01:01:12;;;;;;;;;;;10.30;99.90;;;;;;4962043;29;19914;-79
2024/02/28 01:03:38;;;;;;;;;;;10.40;99.90;;;;;;4979496;29;19917;-79
2024/02/28 01:06:04;;;;;;;;;;;10.10;99.90;;;;;;4962461;29;19907;-79
2024/02/28 01:08:30;;;;;;;;;;;10.00;99.90;;;;;;4979115;29;19930;-78
2024/02/28 01:10:55;;;;;;;;;;;9.90;99.90;;;;;;4962887;28;19938;-79
2024/02/28 01:28:53;;;;;;;;;;;9.50;99.90;;;;;;6045904;23;21255;-79
2024/02/28 01:31:18;;;;;;;;;;;9.40;99.90;;;;;;4978817;28;19906;-79
2024/02/28 01:33:44;;;;;;;;;;;9.40;99.90;;;;;;4957139;29;19913;-78
2024/02/28 01:36:11;;;;;;;;;;;9.30;99.90;;;;;;4956943;29;20499;-79
2024/02/28 01:38:36;;;;;;;;;;;9.30;99.90;;;;;;4973439;28;19942;-79
2024/02/28 01:41:02;;;;;;;;;;;9.20;99.90;;;;;;4956238;29;19930;-78
2024/02/28 01:43:28;;;;;;;;;;;9.10;99.90;;;;;;4955981;29;19910;-79
2024/02/28 01:45:53;;;;;;;;;;;9.10;99.90;;;;;;4956230;29;19911;-79
2024/02/28 01:48:19;;;;;;;;;;;9.10;99.90;;;;;;4955785;29;19911;-77
2024/02/28 01:50:45;;;;;;;;;;;9.10;99.90;;;;;;4972400;29;19910;-78
2024/02/28 01:53:13;;;;;;;;;;;9.00;99.90;;;;;;4952464;29;20393;-78
2024/02/28 01:55:39;;;;;;;;;;;8.90;99.90;;;;;;4974834;29;19890;-79
2024/02/28 01:58:05;;;;;;;;;;;9.20;99.90;;;;;;4959716;29;19891;-79
2024/02/28 02:00:32;;;;;;;;;;;8.90;99.90;;;;;;4959531;29;20404;-78
2024/02/28 02:02:57;;;;;;;;;;;9.00;99.90;;;;;;4974585;29;19935;-79
2024/02/28 02:05:23;;;;;;;;;;;9.20;99.90;;;;;;4957280;29;19937;-79
2024/02/28 02:07:49;;;;;;;;;;;9.00;99.90;;;;;;4976631;29;19906;-78
2024/02/28 02:10:15;;;;;;;;;;;9.10;99.90;;;;;;4976001;29;19925;-79
2024/02/28 02:12:41;;;;;;;;;;;8.90;99.90;;;;;;4977318;28;19898;-80
2024/02/28 02:15:06;;;;;;;;;;;8.90;99.90;;;;;;4961341;29;19910;-78
2024/02/28 02:17:32;;;;;;;;;;;9.00;99.90;;;;;;4975783;29;19897;-80
2024/02/28 02:19:58;;;;;;;;;;;9.00;99.90;;;;;;4961205;29;19902;-80
2024/02/28 02:22:27;;;;;;;;;;;9.70;99.90;;;;;;4977674;29;19890;-79
2024/02/28 02:24:52;;;;;;;;;;;9.10;99.90;;;;;;4978733;29;19914;-79
2024/02/28 02:27:18;;;;;;;;;;;9.10;99.90;;;;;;4961774;29;19910;-78
2024/02/28 02:29:44;;;;;;;;;;;9.10;99.90;;;;;;4957883;28;20426;-77
2024/02/28 02:32:09;;;;;;;;;;;9.60;99.90;;;;;;4977492;28;19915;-78
2024/02/28 02:34:35;;;;;;;;;;;9.30;99.90;;;;;;4962496;28;19910;-79
2024/02/28 02:37:01;;;;;;;;;;;9.30;99.90;;;;;;4963106;28;19978;-79
2024/02/28 02:39:27;;;;;;;;;;;9.30;99.90;;;;;;4961783;29;19891;-80
2024/02/28 02:41:52;;;;;;;;;;;9.20;99.90;;;;;;4959776;29;19906;-79
2024/02/28 02:44:18;;;;;;;;;;;9.30;99.90;;;;;;4957964;29;19894;-79
2024/02/28 02:46:43;;;;;;;;;;;9.40;99.90;;;;;;4959787;28;19926;-78
2024/02/28 02:49:09;;;;;;;;;;;9.50;99.90;;;;;;4974765;29;19899;-80
2024/02/28 02:51:35;;;;;;;;;;;9.40;99.90;;;;;;4980126;28;19895;-79
2024/02/28 02:54:01;;;;;;;;;;;9.40;99.90;;;;;;4982074;28;19901;-78
2024/02/28 02:56:26;;;;;;;;;;;9.40;99.90;;;;;;4965657;29;19890;-79
2024/02/28 02:58:52;;;;;;;;;;;9.40;99.90;;;;;;4965241;29;19914;-78
2024/02/28 03:01:19;;;;;;;;;;;9.20;99.90;;;;;;4982127;28;19911;-80
2024/02/28 03:03:45;;;;;;;;;;;9.30;99.90;;;;;;4974756;29;19930;-78
2024/02/28 03:06:11;;;;;;;;;;;8.70;99.90;;;;;;4958776;29;19962;-78
2024/02/28 03:08:36;;;;;;;;;;;9.20;99.90;;;;;;4960536;29;19930;-79
2024/02/28 03:11:04;;;;;;;;;;;9.00;99.90;;;;;;4976622;28;19906;-80
2024/02/28 03:23:52;;;;;;;;;;;9.20;99.90;;;;;;5259577;23;19913;-78
2024/02/28 03:26:18;;;;;;;;;;;9.20;99.90;;;;;;4960200;29;19942;-78
2024/02/28 03:28:44;;;;;;;;;;;9.30;99.90;;;;;;4964001;28;19901;-80
2024/02/28 03:31:09;;;;;;;;;;;9.30;99.90;;;;;;4982548;28;19934;-79
2024/02/28 03:33:35;;;;;;;;;;;9.10;99.90;;;;;;4965182;28;19910;-79
2024/02/28 03:46:22;;;;;;;;;;;9.20;99.90;;;;;;5515730;23;19930;-79
2024/02/28 03:48:48;;;;;;;;;;;9.20;99.90;;;;;;4941274;29;19922;-80
2024/02/28 03:51:13;;;;;;;;;;;9.20;99.90;;;;;;4957894;29;19965;-79
2024/02/28 03:53:40;;;;;;;;;;;9.20;99.90;;;;;;4939361;29;19934;-79
2024/02/28 03:56:06;;;;;;;;;;;9.50;99.90;;;;;;4942207;29;19950;-79
2024/02/28 03:58:31;;;;;;;;;;;9.30;99.90;;;;;;4958573;29;19913;-80
2024/02/28 04:00:57;;;;;;;;;;;9.50;99.90;;;;;;4941447;29;19918;-79
2024/02/28 04:03:23;;;;;;;;;;;9.20;99.90;;;;;;4958489;28;19949;-79
2024/02/28 04:05:48;;;;;;;;;;;9.20;99.90;;;;;;4945907;29;19950;-78
2024/02/28 04:08:14;;;;;;;;;;;9.30;99.90;;;;;;5777467;23;19920;-78
2024/02/28 04:10:39;;;;;;;;;;;9.30;99.90;;;;;;4960012;29;20020;-79
2024/02/28 04:13:05;;;;;;;;;;;9.30;99.90;;;;;;4978488;29;19913;-78
2024/02/28 04:15:31;;;;;;;;;;;9.40;99.90;;;;;;4979593;29;19921;-79
2024/02/28 04:17:56;;;;;;;;;;;10.00;99.90;;;;;;4979683;29;19911;-81
2024/02/28 04:20:22;;;;;;;;;;;9.20;99.90;;;;;;4963132;29;19890;-79
2024/02/28 04:22:48;;;;;;;;;;;9.50;99.90;;;;;;4962510;29;19918;-79
2024/02/28 04:25:13;;;;;;;;;;;9.40;99.90;;;;;;4962197;29;19913;-79
2024/02/28 04:27:39;;;;;;;;;;;9.40;99.90;;;;;;4979145;29;19898;-79
2024/02/28 04:30:05;;;;;;;;;;;9.40;99.90;;;;;;4978457;29;19930;-79
2024/02/28 04:32:30;;;;;;;;;;;9.40;99.90;;;;;;4960772;29;19952;-80
2024/02/28 04:34:56;;;;;;;;;;;9.40;99.90;;;;;;4961008;29;19933;-79
2024/02/28 04:37:22;;;;;;;;;;;10.10;99.90;;;;;;4976856;29;19945;-80
2024/02/28 04:39:47;;;;;;;;;;;9.50;99.90;;;;;;4979485;29;20320;-80
2024/02/28 04:42:13;;;;;;;;;;;9.50;99.90;;;;;;4979220;28;19895;-79
2024/02/28 04:44:39;;;;;;;;;;;9.50;99.90;;;;;;4962108;28;19922;-79
2024/02/28 04:47:04;;;;;;;;;;;9.50;99.90;;;;;;5109494;23;19930;-79
2024/02/28 04:54:41;;;;;;;;;;;9.60;99.90;;;;;;5315222;23;19926;-79
2024/02/28 04:57:10;;;;;;;;;;;9.70;99.90;;;;;;4960476;29;19897;-80
2024/02/28 04:59:35;;;;;;;;;;;9.80;99.90;;;;;;4960752;29;19907;-80
2024/02/28 05:02:01;;;;;;;;;;;9.80;99.90;;;;;;4977632;29;20299;-80
2024/02/28 05:04:27;;;;;;;;;;;9.80;99.90;;;;;;4960893;29;19981;-79
2024/02/28 05:06:52;;;;;;;;;;;9.80;99.90;;;;;;4978304;29;19906;-80
2024/02/28 05:09:18;;;;;;;;;;;9.90;99.90;;;;;;4960890;29;19906;-79
2024/02/28 05:11:44;;;;;;;;;;;9.80;99.90;;;;;;4960415;29;19906;-79
2024/02/28 05:14:10;;;;;;;;;;;10.30;99.90;;;;;;4959642;29;19917;-80
2024/02/28 05:16:36;;;;;;;;;;;9.90;99.90;;;;;;4961415;28;19918;-80
2024/02/28 05:19:02;;;;;;;;;;;9.90;99.90;;;;;;4964028;28;19914;-79
2024/02/28 05:21:28;;;;;;;;;;;9.90;99.90;;;;;;4962760;29;20025;-79
2024/02/28 05:23:53;;;;;;;;;;;10.00;99.90;;;;;;4962134;28;19914;-79
2024/02/28 05:26:19;;;;;;;;;;;9.80;99.90;;;;;;4962038;29;19907;-79
2024/02/28 05:28:44;;;;;;;;;;;9.80;99.90;;;;;;4961833;29;19906;-79
2024/02/28 05:31:23;;;;;;;;;;;9.80;99.90;;;;;;4961816;28;19906;-81
2024/02/28 05:33:58;;;;;;;;;;;9.80;99.90;;;;;;4979070;28;19891;-79
2024/02/28 05:36:24;;;;;;;;;;;9.70;99.90;;;;;;4960630;29;19913;-79
2024/02/28 05:38:50;;;;;;;;;;;9.80;99.90;;;;;;4948874;29;19897;-79
2024/02/28 05:41:16;;;;;;;;;;;9.80;99.90;;;;;;4955221;29;19910;-79
2024/02/28 05:43:42;;;;;;;;;;;9.70;99.90;;;;;;4955315;29;19925;-79
2024/02/28 05:46:07;;;;;;;;;;;9.10;99.90;;;;;;4971993;29;19911;-79
2024/02/28 05:48:33;;;;;;;;;;;9.80;99.90;;;;;;4956905;29;20424;-79
2024/02/28 05:51:00;;;;;;;;;;;9.80;99.90;;;;;;4951476;29;19906;-78
2024/02/28 05:53:26;;;;;;;;;;;9.80;99.90;;;;;;4965738;29;19915;-78
2024/02/28 05:55:53;;;;;;;;;;;9.90;99.90;;;;;;4957591;29;19891;-80
2024/02/28 05:58:19;;;;;;;;;;;9.80;99.90;;;;;;4976049;29;19910;-80
2024/02/28 06:00:45;;;;;;;;;;;9.60;99.90;;;;;;4972401;29;19907;-80
2024/02/28 06:03:10;;;;;;;;;;;9.70;99.90;;;;;;4957416;29;19925;-80
2024/02/28 06:05:36;;;;;;;;;;;9.80;99.90;;;;;;4971883;29;19906;-79
2024/02/28 06:08:02;;;;;;;;;;;9.80;99.90;;;;;;4972588;28;19986;-79
2024/02/28 06:10:28;;;;;;;;;;;9.70;99.90;;;;;;4973499;29;19891;-79
2024/02/28 06:12:54;;;;;;;;;;;9.80;99.90;;;;;;4954496;29;19917;-78
2024/02/28 06:15:19;;;;;;;;;;;9.80;99.90;;;;;;4970935;29;19890;-79
2024/02/28 06:17:45;;;;;;;;;;;9.80;99.90;;;;;;4972545;29;19926;-79
2024/02/28 06:20:11;;;;;;;;;;;9.90;99.90;;;;;;4955933;29;19973;-80
2024/02/28 06:22:36;;;;;;;;;;;10.00;99.90;;;;;;4953795;29;19930;-80
2024/02/28 06:25:02;;;;;;;;;;;10.00;99.90;;;;;;4957695;29;19906;-80
2024/02/28 06:27:27;;;;;;;;;;;10.10;99.90;;;;;;4954011;29;19974;-79
2024/02/28 06:29:53;;;;;;;;;;;10.10;99.90;;;;;;4969063;29;20014;-80
2024/02/28 06:32:19;;;;;;;;;;;10.20;99.90;;;;;;4955393;29;19897;-80
2024/02/28 06:34:45;;;;;;;;;;;10.20;99.90;;;;;;4953628;29;19910;-79
2024/02/28 06:37:11;;;;;;;;;;;10.40;99.90;;;;;;4956551;29;19907;-78
2024/02/28 06:39:37;;;;;;;;;;;10.30;99.90;;;;;;4949784;29;19913;-80
2024/02/28 06:42:02;;;;;;;;;;;10.30;99.90;;;;;;4956587;29;20451;-79
2024/02/28 06:44:28;;;;;;;;;;;10.20;99.90;;;;;;4950542;29;19906;-79
2024/02/28 06:46:53;;;;;;;;;;;10.20;99.90;;;;;;4948792;29;19906;-79
2024/02/28 06:49:19;;;;;;;;;;;10.30;99.90;;;;;;4956463;29;19907;-79
2024/02/28 06:51:45;;;;;;;;;;;10.20;99.90;;;;;;4968446;29;19967;-79
2024/02/28 06:54:10;;;;;;;;;;;10.40;99.90;;;;;;4954388;29;19922;-79
2024/02/28 06:56:36;;;;;;;;;;;10.30;99.90;;;;;;4954727;29;19913;-79
2024/02/28 06:59:03;;;;;;;;;;;10.40;99.90;;;;;;4954569;29;19907;-79
2024/02/28 07:01:29;;;;;;;;;;;10.50;99.90;;;;;;4956863;29;19907;-79
2024/02/28 07:03:54;;;;;;;;;;;10.50;99.90;;;;;;4955035;29;19952;-80
2024/02/28 07:06:20;;;;;;;;;;;11.10;99.90;;;;;;4970842;29;19907;-80
2024/02/28 07:08:46;;;;;;;;;;;10.50;99.90;;;;;;4954306;29;19890;-80
2024/02/28 07:11:15;;;;;;;;;;;10.50;99.90;;;;;;4957759;29;19914;-78
2024/02/28 07:13:41;;;;;;;;;;;10.60;99.90;;;;;;4952322;29;19910;-79
2024/02/28 07:16:07;;;;;;;;;;;10.60;99.90;;;;;;4955844;29;19948;-80
2024/02/28 07:18:33;;;;;;;;;;;10.60;99.90;;;;;;4975169;29;19914;-79
2024/02/28 07:20:58;;;;;;;;;;;10.60;99.90;;;;;;4969583;29;20356;-79
2024/02/28 07:23:24;;;;;;;;;;;11.10;99.90;;;;;;4956112;29;19925;-80
2024/02/28 07:25:50;;;;;;;;;;;10.80;99.90;;;;;;4957563;29;19914;-79
2024/02/28 07:28:15;;;;;;;;;;;10.80;99.90;;;;;;4974274;29;19973;-80
2024/02/28 07:30:42;;;;;;;;;;;10.90;99.90;;;;;;4954211;29;19926;-80
2024/02/28 07:33:08;;;;;;;;;;;11.00;99.90;;;;;;4957203;29;19907;-79
2024/02/28 07:35:43;;;;;;;;;;;10.90;99.90;;;;;;4974943;29;19913;-78
2024/02/28 07:38:09;;;;;;;;;;;11.00;99.90;;;;;;4960060;29;19897;-80
2024/02/28 07:40:35;;;;;;;;;;;11.10;99.90;;;;;;4960727;29;19958;-79
2024/02/28 07:43:00;;;;;;;;;;;11.10;99.90;;;;;;4960887;29;19950;-80
2024/02/28 07:45:26;;;;;;;;;;;11.10;99.90;;;;;;4959026;29;19909;-79
2024/02/28 07:47:52;;;;;;;;;;;11.00;99.90;;;;;;4977218;29;19897;-79
2024/02/28 07:50:17;;;;;;;;;;;10.90;99.90;;;;;;4976609;29;20455;-79
2024/02/28 07:52:43;;;;;;;;;;;11.00;99.90;;;;;;4973168;29;19911;-79
2024/02/28 07:55:08;;;;;;;;;;;11.10;99.90;;;;;;4956934;29;19918;-79
2024/02/28 07:57:34;;;;;;;;;;;11.30;99.90;;;;;;4975007;29;19910;-79
2024/02/28 08:00:00;;;;;;;;;;;11.30;99.90;;;;;;4965205;28;19901;-80
2024/02/28 08:02:25;;;;;;;;;;;11.30;99.30;;;;;;4965948;28;19914;-79
2024/02/28 08:04:51;;;;;;;;;;;11.30;99.10;;;;;;4978052;29;19953;-80
2024/02/28 08:07:16;;;;;;;;;;;11.40;98.80;;;;;;4982427;28;19894;-79
2024/02/28 08:09:42;;;;;;;;;;;11.40;99.10;;;;;;5071032;23;19927;-79
2024/02/28 08:12:07;;;;;;;;;;;11.50;98.90;;;;;;4938352;29;19917;-80
2024/02/28 08:14:34;;;;;;;;;;;11.50;98.70;;;;;;4955773;29;19929;-79
2024/02/28 08:17:00;;;;;;;;;;;11.60;98.30;;;;;;4937868;29;19949;-79
2024/02/28 08:19:26;;;;;;;;;;;11.50;98.70;;;;;;4936514;29;19899;-79
2024/02/28 08:21:51;;;;;;;;;;;11.40;99.00;;;;;;4949249;29;19913;-78
2024/02/28 08:24:17;;;;;;;;;;;11.50;99.00;;;;;;4936108;29;19914;-78
2024/02/28 08:26:43;;;;;;;;;;;11.50;98.60;;;;;;4948237;29;19930;-79
2024/02/28 08:29:08;;;;;;;;;;;11.50;98.90;;;;;;4951633;29;19950;-79
2024/02/28 08:31:39;;;;;;;;;;;11.60;98.60;;;;;;4931224;29;20371;-79
2024/02/28 08:34:04;;;;;;;;;;;11.50;99.10;;;;;;4948167;29;19906;-78
2024/02/28 08:36:30;;;;;;;;;;;11.60;99.20;;;;;;4931025;29;19931;-78
2024/02/28 08:38:55;;;;;;;;;;;11.50;99.20;;;;;;4931836;29;19950;-78
2024/02/28 08:41:21;;;;;;;;;;;11.50;99.00;;;;;;4932931;29;19907;-78
2024/02/28 08:43:46;;;;;;;;;;;11.50;99.50;;;;;;4946516;29;19934;-79
2024/02/28 08:46:18;;;;;;;;;;;11.20;99.10;;;;;;4929602;29;19914;-79
2024/02/28 08:48:44;;;;;;;;;;;11.60;99.40;;;;;;4932327;29;19906;-79
2024/02/28 08:51:32;;;;;;;;;;;11.70;99.00;;;;;;4953836;29;19914;-79
2024/02/28 08:54:01;;;;;;;;;;;11.80;98.60;;;;;;4950883;29;19891;-79
2024/02/28 08:56:27;;;;;;;;;;;11.90;98.90;;;;;;4932718;29;19926;-80
2024/02/28 08:58:52;;;;;;;;;;;11.90;98.70;;;;;;4950292;29;19907;-79
2024/02/28 09:01:18;;;;;;;;;;;11.90;98.60;;;;;;4934668;29;19918;-81
2024/02/28 09:03:43;;;;;;;;;;;12.00;98.20;;;;;;4935348;29;20308;-79
2024/02/28 09:06:17;;;;;;;;;;;12.00;98.10;;;;;;4951685;29;19910;-79
2024/02/28 09:08:52;;;;;;;;;;;11.90;98.50;;;;;;4953997;29;19919;-80
2024/02/28 09:11:19;;;;;;;;;;;11.90;98.70;;;;;;4955056;29;19915;-80
2024/02/28 09:14:12;;;;;;;;;;;12.00;99.00;;;;;;4933389;29;20423;-78
2024/02/28 09:16:37;;;;;;;;;;;12.10;98.50;;;;;;4935076;29;19907;-79
2024/02/28 09:19:03;;;;;;;;;;;12.00;99.20;;;;;;4952016;29;19907;-79
2024/02/28 09:21:29;;;;;;;;;;;12.10;98.60;;;;;;4931070;29;19930;-79
2024/02/28 09:23:55;;;;;;;;;;;12.10;98.80;;;;;;4926046;29;19914;-79
2024/02/28 09:26:20;;;;;;;;;;;12.10;98.70;;;;;;4931654;29;19910;-79
2024/02/28 09:28:46;;;;;;;;;;;12.00;98.50;;;;;;4937711;29;19917;-79
2024/02/28 09:31:11;;;;;;;;;;;12.10;98.40;;;;;;4954041;29;19911;-79
2024/02/28 09:33:37;;;;;;;;;;;12.10;98.20;;;;;;4938557;29;19907;-79
2024/02/28 09:36:03;;;;;;;;;;;12.10;98.40;;;;;;4932310;29;19930;-78
2024/02/28 09:38:29;;;;;;;;;;;12.10;98.90;;;;;;4932037;29;19907;-79
2024/02/28 09:40:55;;;;;;;;;;;12.10;98.70;;;;;;4954770;29;20315;-77
2024/02/28 09:43:39;;;;;;;;;;;12.00;99.20;;;;;;4940057;29;19946;-78
2024/02/28 09:46:05;;;;;;;;;;;11.90;99.90;;;;;;4948853;29;19906;-79
2024/02/28 09:48:31;;;;;;;;;;;12.10;99.30;;;;;;4955106;29;19902;-79
2024/02/28 09:50:57;;;;;;;;;;;12.00;99.10;;;;;;4934253;29;19917;-79
2024/02/28 09:53:22;;;;;;;;;;;12.00;99.40;;;;;;4953404;29;19910;-79
2024/02/28 09:55:49;;;;;;;;;;;12.10;99.40;;;;;;4951773;29;19907;-79
2024/02/28 09:58:15;;;;;;;;;;;12.00;99.30;;;;;;4933838;29;19914;-78
2024/02/28 10:00:43;;;;;;;;;;;12.10;99.60;;;;;;4933340;29;19911;-79
2024/02/28 10:03:14;;;;;;;;;;;12.10;99.70;;;;;;4951969;29;20292;-79
2024/02/28 10:05:40;;;;;;;;;;;12.20;99.70;;;;;;4935085;29;19946;-79
2024/02/28 10:08:09;;;;;;;;;;;12.30;99.10;;;;;;4952480;29;19911;-79
2024/02/28 10:10:40;;;;;;;;;;;12.50;99.20;;;;;;4934230;29;19934;-79
2024/02/28 10:13:06;;;;;;;;;;;12.50;98.90;;;;;;4952918;29;19951;-78
2024/02/28 10:15:32;;;;;;;;;;;12.70;99.40;;;;;;4955185;28;19895;-79
2024/02/28 10:17:57;;;;;;;;;;;12.60;98.70;;;;;;4938570;29;19914;-79
2024/02/28 10:20:23;;;;;;;;;;;12.60;98.80;;;;;;4954924;29;19907;-78
2024/02/28 10:22:52;;;;;;;;;;;12.60;98.70;;;;;;4938016;29;19958;-79
2024/02/28 10:25:21;;;;;;;;;;;12.60;98.80;;;;;;4953165;29;19906;-79
2024/02/28 10:27:47;;;;;;;;;;;12.80;98.50;;;;;;4937051;29;19922;-79
2024/02/28 10:30:15;;;;;;;;;;;12.80;98.70;;;;;;4939337;29;19910;-78
2024/02/28 10:32:48;;;;;;;;;;;13.00;98.20;;;;;;4940969;28;19895;-79
2024/02/28 10:37:50;;;;;;;;;;;13.30;97.30;;;;;;5267106;23;19914;-78
2024/02/28 10:40:16;;;;;;;;;;;13.00;96.90;;;;;;4979171;28;19903;-78
2024/02/28 10:42:43;;;;;;;;;;;13.30;97.00;;;;;;4978420;28;19898;-79
2024/02/28 10:45:12;;;;;;;;;;;13.60;96.40;;;;;;4963125;28;19911;-78
2024/02/28 10:47:38;;;;;;;;;;;13.60;96.00;;;;;;4976001;28;19895;-79
2024/02/28 10:50:03;;;;;;;;;;;13.50;96.10;;;;;;4977266;28;19894;-78
2024/02/28 11:00:16;;;;;;;;;;;13.60;95.60;;;;;;5094969;23;19907;-79
2024/02/28 11:02:43;;;;;;;;;;;13.70;95.50;;;;;;4962125;28;19970;-78
2024/02/28 11:07:44;;;;;;;;;;;14.00;95.50;;;;;;5653687;23;19912;-78
2024/02/28 11:10:12;;;;;;;;;;;14.30;94.50;;;;;;4959147;28;19945;-77
2024/02/28 11:12:38;;;;;;;;;;;14.50;93.80;;;;;;4963937;28;19938;-77
2024/02/28 11:15:06;;;;;;;;;;;14.50;93.40;;;;;;4983044;28;19901;-78
2024/02/28 11:17:32;;;;;;;;;;;14.50;93.50;;;;;;4982654;28;19894;-78
2024/02/28 11:19:58;;;;;;;;;;;14.30;93.00;;;;;;4981999;28;19894;-83
2024/02/28 11:22:24;;;;;;;;;;;14.80;93.20;;;;;;4965889;28;19902;-78
2024/02/28 11:24:53;;;;;;;;;;;14.90;92.50;;;;;;4980925;28;19923;-80
2024/02/28 11:29:54;;;;;;;;;;;14.90;91.70;;;;;;5875620;23;19932;-79
2024/02/28 11:42:41;;;;;;;;;;;14.80;91.40;;;;;;5511351;23;19930;-77
2024/02/28 11:45:10;;;;;;;;;;;14.80;91.80;;;;;;4958905;29;19906;-77
2024/02/28 11:47:36;;;;;;;;;;;14.80;91.60;;;;;;4981068;28;20061;-77
2024/02/28 11:50:02;;;;;;;;;;;14.80;91.40;;;;;;4982026;28;19895;-78
2024/02/28 12:02:49;;;;;;;;;;;14.80;91.50;;;;;;5270336;23;19906;-79
2024/02/28 12:57:06;;;;;;;;;;;15.30;90.00;;;;;;5252348;23;19922;-78
2024/02/28 12:59:32;;;;;;;;;;;15.30;90.40;;;;;;4964109;28;19913;-79
2024/02/28 13:07:09;;;;;;;;;;;15.60;89.50;;;;;;5403223;23;19938;-77
2024/02/28 13:12:10;;;;;;;;;;;15.70;88.70;;;;;;5012292;23;19992;-78
2024/02/28 13:14:35;;;;;;;;;;;15.70;88.10;;;;;;4958917;29;19949;-78
2024/02/28 13:17:01;;;;;;;;;;;15.70;88.00;;;;;;4963459;28;19926;-78
2024/02/28 13:19:26;;;;;;;;;;;15.60;88.60;;;;;;4976990;29;19891;-78
2024/02/28 13:21:52;;;;;;;;;;;15.50;88.70;;;;;;4959092;29;19918;-78
2024/02/28 13:24:18;;;;;;;;;;;15.60;88.60;;;;;;4960372;28;19990;-78
2024/02/28 13:34:29;;;;;;;;;;;15.50;88.00;;;;;;5217836;23;19933;-78
2024/02/28 13:36:57;;;;;;;;;;;15.60;88.70;;;;;;4977033;29;19938;-77
2024/02/28 13:39:23;;;;;;;;;;;15.60;87.90;;;;;;4976785;28;19890;-77
2024/02/28 13:49:35;;;;;;;;;;;15.40;88.30;;;;;;5468438;23;20010;-78
2024/02/28 13:54:36;;;;;;;;;;;15.60;87.40;;;;;;5857803;23;19922;-80
2024/02/28 13:57:01;;;;;;;;;;;15.60;87.60;;;;;;4956797;28;19902;-78
2024/02/28 13:59:27;;;;;;;;;;;15.50;88.00;;;;;;4938453;29;19906;-79
2024/02/28 14:01:53;;;;;;;;;;;15.40;87.70;;;;;;4952608;29;20499;-78
2024/02/28 14:04:19;;;;;;;;;;;15.30;89.60;;;;;;4956642;29;19914;-78
2024/02/28 14:06:45;;;;;;;;;;;15.40;89.20;;;;;;4955223;29;19890;-78
2024/02/28 14:09:13;;;;;;;;;;;15.40;89.60;;;;;;4954571;29;19907;-78
2024/02/28 14:11:39;;;;;;;;;;;15.20;90.00;;;;;;4953802;29;19907;-78
2024/02/28 14:14:04;;;;;;;;;;;15.20;90.40;;;;;;4955503;29;19898;-79
2024/02/28 14:16:32;;;;;;;;;;;15.20;90.20;;;;;;4953812;29;19974;-78
2024/02/28 14:18:57;;;;;;;;;;;15.00;90.40;;;;;;4957634;29;19907;-78
2024/02/28 14:21:24;;;;;;;;;;;15.20;89.90;;;;;;4942769;28;20020;-78
2024/02/28 14:34:11;;;;;;;;;;;15.00;90.90;;;;;;5720330;23;19933;-78
2024/02/28 14:41:47;;;;;;;;;;;15.00;91.00;;;;;;5355960;23;19914;-78
2024/02/28 15:04:59;;;;;;;;;;;14.50;92.80;;;;;;6019515;23;19912;-78
2024/02/28 15:26:19;;;;;;;;;;;13.80;95.10;;;;;;4716224;27;19919;-78
2024/02/28 15:34:02;;;;;;;;;;;13.60;96.10;;;;;;5033082;23;19922;-78
2024/02/28 15:36:28;;;;;;;;;;;13.50;96.20;;;;;;4980889;28;19914;-78
2024/02/28 16:28:05;;;;;;;;;;;11.80;99.90;;;;;;5398286;23;19989;-79
2024/02/28 16:30:31;;;;;;;;;;;11.80;99.90;;;;;;4964449;28;19911;-80
2024/02/28 16:33:00;;;;;;;;;;;11.80;99.90;;;;;;4981958;28;19915;-79
2024/02/28 16:35:26;;;;;;;;;;;11.80;99.90;;;;;;4978171;29;19907;-79
2024/02/28 16:37:51;;;;;;;;;;;11.70;99.90;;;;;;4981096;28;19910;-78
2024/02/28 16:40:17;;;;;;;;;;;11.60;99.90;;;;;;4980388;28;19894;-80
2024/02/28 16:42:43;;;;;;;;;;;11.50;99.90;;;;;;4980642;28;19910;-79
2024/02/28 16:45:08;;;;;;;;;;;11.40;99.90;;;;;;4963413;28;19902;-79
2024/02/28 16:47:34;;;;;;;;;;;11.30;99.90;;;;;;4980694;28;19895;-79
2024/02/28 16:50:01;;;;;;;;;;;11.30;99.90;;;;;;4981370;28;19950;-79
2024/02/28 16:52:26;;;;;;;;;;;11.10;99.90;;;;;;4980802;28;19911;-78
2024/02/28 17:28:31;;;;;;;;;;;10.60;99.90;;;;;;5038701;23;19949;-79
2024/02/28 17:30:58;;;;;;;;;;;10.70;99.90;;;;;;4978627;28;19943;-79
2024/02/28 17:33:25;;;;;;;;;;;10.50;99.90;;;;;;4958623;29;19910;-78
2024/02/28 17:35:51;;;;;;;;;;;10.50;99.90;;;;;;4978669;28;19900;-79
2024/02/28 17:38:17;;;;;;;;;;;10.50;99.90;;;;;;4978621;28;19979;-79
2024/02/28 17:46:00;;;;;;;;;;;10.30;99.90;;;;;;6028029;23;19916;-79
2024/02/28 17:48:28;;;;;;;;;;;10.20;99.90;;;;;;4973185;29;19977;-79
2024/02/28 17:50:55;;;;;;;;;;;10.10;99.90;;;;;;4972128;29;19911;-79
2024/02/28 17:53:22;;;;;;;;;;;10.10;99.90;;;;;;4952648;29;19991;-79
2024/02/28 17:55:48;;;;;;;;;;;10.00;99.90;;;;;;4974860;28;19901;-81
2024/02/28 17:58:14;;;;;;;;;;;10.00;99.90;;;;;;4957743;28;19941;-79
2024/02/28 18:03:15;;;;;;;;;;;9.90;99.90;;;;;;5325003;23;19926;-80
2024/02/28 18:05:41;;;;;;;;;;;9.90;99.90;;;;;;4962297;29;19917;-78
2024/02/28 18:08:06;;;;;;;;;;;9.80;99.90;;;;;;4959650;28;19969;-78
2024/02/28 18:10:32;;;;;;;;;;;9.80;99.90;;;;;;4977889;29;19890;-80
2024/02/28 18:12:58;;;;;;;;;;;9.80;99.90;;;;;;4959622;28;19922;-77
2024/02/28 18:15:24;;;;;;;;;;;9.80;99.90;;;;;;4974229;28;19945;-78
2024/02/28 18:17:49;;;;;;;;;;;9.80;99.90;;;;;;4956436;29;19930;-79
2024/02/28 18:20:15;;;;;;;;;;;9.80;99.90;;;;;;4960821;28;19910;-79
2024/02/28 18:22:41;;;;;;;;;;;9.70;99.90;;;;;;4977563;29;19917;-79
2024/02/28 18:25:07;;;;;;;;;;;9.80;99.90;;;;;;4978180;28;19929;-79
2024/02/28 18:27:33;;;;;;;;;;;9.60;99.90;;;;;;4975467;29;19891;-80
2024/02/28 18:29:58;;;;;;;;;;;9.60;99.90;;;;;;5030778;23;20003;-79
2024/02/28 18:32:24;;;;;;;;;;;9.50;99.90;;;;;;4979340;28;19922;-80
2024/02/28 18:34:51;;;;;;;;;;;9.70;99.90;;;;;;4959287;28;19906;-78
2024/02/28 18:37:16;;;;;;;;;;;9.30;99.90;;;;;;4965563;29;19934;-79
2024/02/28 18:39:43;;;;;;;;;;;9.30;99.90;;;;;;4975224;29;19969;-80
2024/02/28 18:42:09;;;;;;;;;;;9.30;99.90;;;;;;4976174;29;19906;-80
2024/02/28 18:44:34;;;;;;;;;;;9.30;99.90;;;;;;4977476;28;19898;-78
2024/02/28 18:49:35;;;;;;;;;;;9.10;99.90;;;;;;5017494;23;20071;-78
2024/02/28 18:52:01;;;;;;;;;;;9.10;99.90;;;;;;4956337;29;19969;-79
2024/02/28 18:54:27;;;;;;;;;;;9.20;99.90;;;;;;4952331;29;19910;-79
2024/02/28 18:56:54;;;;;;;;;;;9.30;99.90;;;;;;4952299;29;19913;-79
2024/02/28 18:59:19;;;;;;;;;;;9.20;99.90;;;;;;4965981;28;20256;-79
2024/02/28 19:01:49;;;;;;;;;;;9.20;99.90;;;;;;4948842;29;20087;-79
2024/02/28 19:04:15;;;;;;;;;;;9.20;99.90;;;;;;4970251;29;19911;-79
2024/02/28 19:06:42;;;;;;;;;;;9.70;99.90;;;;;;4963986;29;19917;-80
2024/02/28 19:09:09;;;;;;;;;;;9.10;99.90;;;;;;4964740;29;19910;-77
2024/02/28 19:11:34;;;;;;;;;;;9.10;99.90;;;;;;4945059;29;19906;-79
2024/02/28 19:14:00;;;;;;;;;;;9.10;99.90;;;;;;4962990;29;19906;-79
2024/02/28 19:16:26;;;;;;;;;;;9.00;99.90;;;;;;4949982;29;20395;-80
2024/02/28 19:18:51;;;;;;;;;;;9.00;99.90;;;;;;4951043;29;19931;-79
2024/02/28 19:21:17;;;;;;;;;;;8.90;99.90;;;;;;4968347;29;19913;-79
2024/02/28 19:23:44;;;;;;;;;;;8.90;99.90;;;;;;4950843;29;19915;-79
2024/02/28 19:26:10;;;;;;;;;;;8.90;99.90;;;;;;4965759;28;19973;-79
2024/02/28 19:28:35;;;;;;;;;;;9.00;99.90;;;;;;4969546;29;19910;-79
2024/02/28 19:31:02;;;;;;;;;;;9.20;99.90;;;;;;4970857;29;19907;-79
2024/02/28 19:33:27;;;;;;;;;;;9.30;99.90;;;;;;4969540;28;19910;-78
2024/02/28 19:35:53;;;;;;;;;;;9.20;99.90;;;;;;4972434;29;19906;-79
2024/02/28 19:38:19;;;;;;;;;;;9.10;99.90;;;;;;4951096;29;19910;-77
2024/02/28 19:40:47;;;;;;;;;;;9.00;99.90;;;;;;4954949;29;19973;-77
2024/02/28 19:43:14;;;;;;;;;;;9.50;99.90;;;;;;4973763;29;19891;-78
2024/02/28 19:45:40;;;;;;;;;;;8.90;99.90;;;;;;4952798;29;19911;-77
2024/02/28 19:48:06;;;;;;;;;;;8.80;99.90;;;;;;4973829;28;19953;-78
2024/02/28 19:50:32;;;;;;;;;;;8.80;99.90;;;;;;4974024;29;19907;-78
2024/02/28 19:52:57;;;;;;;;;;;8.80;99.90;;;;;;4972050;29;19953;-77
2024/02/28 19:55:23;;;;;;;;;;;9.50;99.90;;;;;;4975536;29;19910;-78
2024/02/28 19:57:48;;;;;;;;;;;8.80;99.90;;;;;;4958146;29;19913;-78
2024/02/28 20:00:14;;;;;;;;;;;8.90;99.90;;;;;;4975069;29;19891;-77
2024/02/28 20:02:40;;;;;;;;;;;8.90;99.90;;;;;;4951590;29;19915;-78
2024/02/28 20:05:06;;;;;;;;;;;9.00;99.90;;;;;;4969180;29;19918;-79
2024/02/28 20:07:32;;;;;;;;;;;9.10;99.90;;;;;;4955670;29;20249;-77
2024/02/28 20:09:57;;;;;;;;;;;9.50;99.90;;;;;;4955327;29;19917;-78
2024/02/28 20:12:23;;;;;;;;;;;8.90;99.90;;;;;;4965946;29;19910;-77